sensor_id;sensor_type;location;lat;lon;timestamp;P1;durP1;ratioP1;P2;durP2;ratioP2
41705;SDS011;27385;51.096;17.190;2022-09-09T00:00:46;16.10;;;7.60;;
41705;SDS011;27385;51.096;17.190;2022-09-09T00:03:34;14.20;;;5.90;;
41705;SDS011;27385;51.096;17.190;2022-09-09T00:06:16;16.90;;;6.20;;
41705;SDS011;27385;51.096;17.190;2022-09-09T00:08:59;17.80;;;6.50;;
41705;SDS011;27385;51.096;17.190;2022-09-09T00:11:40;16.40;;;6.30;;
41705;SDS011;27385;51.096;17.190;2022-09-09T00:14:18;19.20;;;6.50;;
41705;SDS011;27385;51.096;17.190;2022-09-09T00:16:58;14.50;;;5.90;;
41705;SDS011;27385;51.096;17.190;2022-09-09T00:19:36;14.90;;;6.40;;
41705;SDS011;27385;51.096;17.190;2022-09-09T00:22:16;14.50;;;6.00;;
41705;SDS011;27385;51.096;17.190;2022-09-09T00:24:50;18.40;;;6.60;;
41705;SDS011;27385;51.096;17.190;2022-09-09T00:27:25;14.50;;;5.90;;
41705;SDS011;27385;51.096;17.190;2022-09-09T00:30:14;13.00;;;5.90;;
41705;SDS011;27385;51.096;17.190;2022-09-09T00:32:51;11.70;;;5.10;;
41705;SDS011;27385;51.096;17.190;2022-09-09T00:35:29;10.50;;;4.80;;
41705;SDS011;27385;51.096;17.190;2022-09-09T00:38:05;12.90;;;4.30;;
41705;SDS011;27385;51.096;17.190;2022-09-09T00:40:45;12.60;;;4.50;;
41705;SDS011;27385;51.096;17.190;2022-09-09T00:43:28;14.10;;;5.60;;
41705;SDS011;27385;51.096;17.190;2022-09-09T00:49:12;12.60;;;4.30;;
41705;SDS011;27385;51.096;17.190;2022-09-09T00:51:52;9.50;;;3.60;;
41705;SDS011;27385;51.096;17.190;2022-09-09T00:54:35;11.60;;;3.20;;
41705;SDS011;27385;51.096;17.190;2022-09-09T00:57:18;15.00;;;3.50;;
41705;SDS011;27385;51.096;17.190;2022-09-09T01:00:00;9.30;;;2.70;;
41705;SDS011;27385;51.096;17.190;2022-09-09T01:02:49;7.50;;;2.60;;
41705;SDS011;27385;51.096;17.190;2022-09-09T01:05:33;9.20;;;2.60;;
41705;SDS011;27385;51.096;17.190;2022-09-09T01:08:14;11.30;;;3.10;;
41705;SDS011;27385;51.096;17.190;2022-09-09T01:10:56;8.50;;;3.10;;
41705;SDS011;27385;51.096;17.190;2022-09-09T01:13:31;8.50;;;3.00;;
41705;SDS011;27385;51.096;17.190;2022-09-09T01:16:08;10.20;;;2.70;;
41705;SDS011;27385;51.096;17.190;2022-09-09T01:18:43;8.70;;;2.50;;
41705;SDS011;27385;51.096;17.190;2022-09-09T01:21:19;8.40;;;3.00;;
41705;SDS011;27385;51.096;17.190;2022-09-09T01:24:04;8.00;;;2.60;;
41705;SDS011;27385;51.096;17.190;2022-09-09T01:26:49;7.90;;;2.90;;
41705;SDS011;27385;51.096;17.190;2022-09-09T01:29:26;8.30;;;2.40;;
41705;SDS011;27385;51.096;17.190;2022-09-09T01:31:58;8.10;;;2.80;;
41705;SDS011;27385;51.096;17.190;2022-09-09T01:34:33;10.40;;;2.30;;
41705;SDS011;27385;51.096;17.190;2022-09-09T01:37:10;7.70;;;2.50;;
41705;SDS011;27385;51.096;17.190;2022-09-09T01:39:43;5.90;;;2.00;;
41705;SDS011;27385;51.096;17.190;2022-09-09T01:42:17;5.40;;;2.00;;
41705;SDS011;27385;51.096;17.190;2022-09-09T01:44:49;9.50;;;2.20;;
41705;SDS011;27385;51.096;17.190;2022-09-09T01:47:22;5.80;;;2.10;;
41705;SDS011;27385;51.096;17.190;2022-09-09T01:49:55;10.20;;;2.50;;
41705;SDS011;27385;51.096;17.190;2022-09-09T01:52:27;8.50;;;2.70;;
41705;SDS011;27385;51.096;17.190;2022-09-09T01:55:00;7.10;;;2.40;;
41705;SDS011;27385;51.096;17.190;2022-09-09T01:57:33;8.30;;;2.60;;
41705;SDS011;27385;51.096;17.190;2022-09-09T02:00:09;8.00;;;2.40;;
41705;SDS011;27385;51.096;17.190;2022-09-09T02:02:46;10.30;;;2.20;;
41705;SDS011;27385;51.096;17.190;2022-09-09T02:05:27;6.50;;;1.80;;
41705;SDS011;27385;51.096;17.190;2022-09-09T02:08:06;11.30;;;2.40;;
41705;SDS011;27385;51.096;17.190;2022-09-09T02:10:42;10.00;;;2.70;;
41705;SDS011;27385;51.096;17.190;2022-09-09T02:13:19;8.60;;;2.70;;
41705;SDS011;27385;51.096;17.190;2022-09-09T02:15:53;6.80;;;2.50;;
41705;SDS011;27385;51.096;17.190;2022-09-09T02:18:30;8.40;;;3.10;;
41705;SDS011;27385;51.096;17.190;2022-09-09T02:21:04;6.20;;;2.10;;
41705;SDS011;27385;51.096;17.190;2022-09-09T02:23:38;6.60;;;2.30;;
41705;SDS011;27385;51.096;17.190;2022-09-09T02:26:13;7.90;;;2.00;;
41705;SDS011;27385;51.096;17.190;2022-09-09T02:28:50;6.20;;;2.30;;
41705;SDS011;27385;51.096;17.190;2022-09-09T02:31:24;8.10;;;2.80;;
41705;SDS011;27385;51.096;17.190;2022-09-09T02:33:57;10.10;;;2.80;;
41705;SDS011;27385;51.096;17.190;2022-09-09T02:36:32;7.30;;;2.00;;
41705;SDS011;27385;51.096;17.190;2022-09-09T02:39:07;7.00;;;2.10;;
41705;SDS011;27385;51.096;17.190;2022-09-09T02:41:40;8.90;;;2.20;;
41705;SDS011;27385;51.096;17.190;2022-09-09T02:44:12;6.60;;;2.10;;
41705;SDS011;27385;51.096;17.190;2022-09-09T02:46:51;10.30;;;2.80;;
41705;SDS011;27385;51.096;17.190;2022-09-09T02:49:35;7.00;;;2.10;;
41705;SDS011;27385;51.096;17.190;2022-09-09T02:52:18;5.40;;;2.00;;
41705;SDS011;27385;51.096;17.190;2022-09-09T02:54:58;7.80;;;2.00;;
41705;SDS011;27385;51.096;17.190;2022-09-09T02:57:34;6.70;;;1.80;;
41705;SDS011;27385;51.096;17.190;2022-09-09T03:00:09;12.30;;;3.00;;
41705;SDS011;27385;51.096;17.190;2022-09-09T03:02:42;7.20;;;2.20;;
41705;SDS011;27385;51.096;17.190;2022-09-09T03:05:14;6.60;;;2.40;;
41705;SDS011;27385;51.096;17.190;2022-09-09T03:07:46;7.30;;;2.30;;
41705;SDS011;27385;51.096;17.190;2022-09-09T03:10:18;6.10;;;1.90;;
41705;SDS011;27385;51.096;17.190;2022-09-09T03:12:51;8.30;;;2.30;;
41705;SDS011;27385;51.096;17.190;2022-09-09T03:15:23;5.80;;;1.90;;
41705;SDS011;27385;51.096;17.190;2022-09-09T03:17:57;7.50;;;2.40;;
41705;SDS011;27385;51.096;17.190;2022-09-09T03:20:29;5.80;;;2.20;;
41705;SDS011;27385;51.096;17.190;2022-09-09T03:23:01;7.00;;;1.70;;
41705;SDS011;27385;51.096;17.190;2022-09-09T03:25:32;6.40;;;2.00;;
41705;SDS011;27385;51.096;17.190;2022-09-09T03:28:04;7.00;;;1.90;;
41705;SDS011;27385;51.096;17.190;2022-09-09T03:30:37;5.20;;;1.80;;
41705;SDS011;27385;51.096;17.190;2022-09-09T03:33:09;4.30;;;1.30;;
41705;SDS011;27385;51.096;17.190;2022-09-09T03:35:46;5.40;;;1.40;;
41705;SDS011;27385;51.096;17.190;2022-09-09T03:38:17;5.60;;;1.60;;
41705;SDS011;27385;51.096;17.190;2022-09-09T03:40:52;5.30;;;1.60;;
41705;SDS011;27385;51.096;17.190;2022-09-09T03:43:25;6.80;;;1.90;;
41705;SDS011;27385;51.096;17.190;2022-09-09T03:46:00;4.50;;;1.50;;
41705;SDS011;27385;51.096;17.190;2022-09-09T03:48:32;4.90;;;1.50;;
41705;SDS011;27385;51.096;17.190;2022-09-09T03:51:03;4.20;;;1.50;;
41705;SDS011;27385;51.096;17.190;2022-09-09T03:53:35;4.30;;;1.60;;
41705;SDS011;27385;51.096;17.190;2022-09-09T03:56:07;5.30;;;1.70;;
41705;SDS011;27385;51.096;17.190;2022-09-09T03:58:39;6.20;;;1.60;;
41705;SDS011;27385;51.096;17.190;2022-09-09T04:01:11;6.50;;;1.90;;
41705;SDS011;27385;51.096;17.190;2022-09-09T04:03:45;4.30;;;1.70;;
41705;SDS011;27385;51.096;17.190;2022-09-09T04:06:18;7.00;;;2.40;;
41705;SDS011;27385;51.096;17.190;2022-09-09T04:08:50;5.10;;;1.70;;
41705;SDS011;27385;51.096;17.190;2022-09-09T04:11:21;4.60;;;1.80;;
41705;SDS011;27385;51.096;17.190;2022-09-09T04:13:54;4.90;;;1.50;;
41705;SDS011;27385;51.096;17.190;2022-09-09T04:16:26;7.40;;;1.90;;
41705;SDS011;27385;51.096;17.190;2022-09-09T04:18:58;8.40;;;1.80;;
41705;SDS011;27385;51.096;17.190;2022-09-09T04:21:32;6.70;;;2.10;;
41705;SDS011;27385;51.096;17.190;2022-09-09T04:24:07;6.20;;;2.10;;
41705;SDS011;27385;51.096;17.190;2022-09-09T04:26:39;6.90;;;2.10;;
41705;SDS011;27385;51.096;17.190;2022-09-09T04:29:11;9.80;;;2.10;;
41705;SDS011;27385;51.096;17.190;2022-09-09T04:31:44;9.30;;;3.10;;
41705;SDS011;27385;51.096;17.190;2022-09-09T04:34:16;9.90;;;3.30;;
41705;SDS011;27385;51.096;17.190;2022-09-09T04:36:48;5.80;;;1.90;;
41705;SDS011;27385;51.096;17.190;2022-09-09T04:39:20;6.80;;;2.10;;
41705;SDS011;27385;51.096;17.190;2022-09-09T04:41:52;5.00;;;1.40;;
41705;SDS011;27385;51.096;17.190;2022-09-09T04:44:24;6.30;;;1.50;;
41705;SDS011;27385;51.096;17.190;2022-09-09T04:46:55;3.80;;;1.30;;
41705;SDS011;27385;51.096;17.190;2022-09-09T04:49:27;5.00;;;1.60;;
41705;SDS011;27385;51.096;17.190;2022-09-09T04:52:01;5.30;;;1.80;;
41705;SDS011;27385;51.096;17.190;2022-09-09T04:54:33;8.80;;;2.90;;
41705;SDS011;27385;51.096;17.190;2022-09-09T04:57:04;9.20;;;3.00;;
41705;SDS011;27385;51.096;17.190;2022-09-09T04:59:36;7.60;;;2.30;;
41705;SDS011;27385;51.096;17.190;2022-09-09T05:02:08;5.40;;;2.00;;
41705;SDS011;27385;51.096;17.190;2022-09-09T05:04:41;8.40;;;2.60;;
41705;SDS011;27385;51.096;17.190;2022-09-09T05:07:15;7.30;;;2.90;;
41705;SDS011;27385;51.096;17.190;2022-09-09T05:09:47;8.60;;;2.70;;
41705;SDS011;27385;51.096;17.190;2022-09-09T05:12:19;8.50;;;2.70;;
41705;SDS011;27385;51.096;17.190;2022-09-09T05:14:51;6.90;;;2.50;;
41705;SDS011;27385;51.096;17.190;2022-09-09T05:17:23;6.00;;;2.10;;
41705;SDS011;27385;51.096;17.190;2022-09-09T05:19:55;5.00;;;2.10;;
41705;SDS011;27385;51.096;17.190;2022-09-09T05:22:27;5.10;;;1.90;;
41705;SDS011;27385;51.096;17.190;2022-09-09T05:24:59;6.50;;;1.90;;
41705;SDS011;27385;51.096;17.190;2022-09-09T05:27:31;8.10;;;2.10;;
41705;SDS011;27385;51.096;17.190;2022-09-09T05:30:06;7.90;;;2.50;;
41705;SDS011;27385;51.096;17.190;2022-09-09T05:32:39;9.70;;;2.80;;
41705;SDS011;27385;51.096;17.190;2022-09-09T05:35:11;9.50;;;3.40;;
41705;SDS011;27385;51.096;17.190;2022-09-09T05:37:43;11.10;;;3.10;;
41705;SDS011;27385;51.096;17.190;2022-09-09T05:40:16;9.50;;;3.80;;
41705;SDS011;27385;51.096;17.190;2022-09-09T05:42:51;10.60;;;4.40;;
41705;SDS011;27385;51.096;17.190;2022-09-09T05:45:23;13.50;;;3.50;;
41705;SDS011;27385;51.096;17.190;2022-09-09T05:47:54;9.00;;;4.20;;
41705;SDS011;27385;51.096;17.190;2022-09-09T05:50:28;10.20;;;4.00;;
41705;SDS011;27385;51.096;17.190;2022-09-09T05:52:59;13.10;;;4.50;;
41705;SDS011;27385;51.096;17.190;2022-09-09T05:55:32;10.10;;;4.80;;
41705;SDS011;27385;51.096;17.190;2022-09-09T05:58:03;11.90;;;4.80;;
41705;SDS011;27385;51.096;17.190;2022-09-09T06:00:35;12.70;;;4.70;;
41705;SDS011;27385;51.096;17.190;2022-09-09T06:03:08;9.20;;;3.80;;
41705;SDS011;27385;51.096;17.190;2022-09-09T06:05:41;11.60;;;4.60;;
41705;SDS011;27385;51.096;17.190;2022-09-09T06:08:13;9.70;;;4.50;;
41705;SDS011;27385;51.096;17.190;2022-09-09T06:10:45;16.80;;;7.50;;
41705;SDS011;27385;51.096;17.190;2022-09-09T06:13:16;12.40;;;5.90;;
41705;SDS011;27385;51.096;17.190;2022-09-09T06:15:51;13.40;;;6.90;;
41705;SDS011;27385;51.096;17.190;2022-09-09T06:18:24;13.90;;;5.80;;
41705;SDS011;27385;51.096;17.190;2022-09-09T06:20:56;14.70;;;5.40;;
41705;SDS011;27385;51.096;17.190;2022-09-09T06:23:30;10.30;;;4.70;;
41705;SDS011;27385;51.096;17.190;2022-09-09T06:26:04;11.50;;;5.60;;
41705;SDS011;27385;51.096;17.190;2022-09-09T06:28:39;13.80;;;5.30;;
41705;SDS011;27385;51.096;17.190;2022-09-09T06:31:12;10.80;;;4.20;;
41705;SDS011;27385;51.096;17.190;2022-09-09T06:33:46;10.50;;;4.90;;
41705;SDS011;27385;51.096;17.190;2022-09-09T06:36:18;10.10;;;4.10;;
41705;SDS011;27385;51.096;17.190;2022-09-09T06:38:52;12.10;;;3.60;;
41705;SDS011;27385;51.096;17.190;2022-09-09T06:41:25;10.30;;;4.80;;
41705;SDS011;27385;51.096;17.190;2022-09-09T06:43:58;8.60;;;3.80;;
41705;SDS011;27385;51.096;17.190;2022-09-09T06:46:31;10.30;;;4.00;;
41705;SDS011;27385;51.096;17.190;2022-09-09T06:49:03;12.60;;;4.30;;
41705;SDS011;27385;51.096;17.190;2022-09-09T06:51:35;8.90;;;4.20;;
41705;SDS011;27385;51.096;17.190;2022-09-09T06:54:10;10.00;;;4.00;;
41705;SDS011;27385;51.096;17.190;2022-09-09T06:56:42;14.50;;;4.50;;
41705;SDS011;27385;51.096;17.190;2022-09-09T06:59:14;12.40;;;2.90;;
41705;SDS011;27385;51.096;17.190;2022-09-09T07:01:45;8.50;;;3.30;;
41705;SDS011;27385;51.096;17.190;2022-09-09T07:04:19;14.60;;;2.50;;
41705;SDS011;27385;51.096;17.190;2022-09-09T07:06:51;13.10;;;3.50;;
41705;SDS011;27385;51.096;17.190;2022-09-09T07:09:22;9.70;;;2.90;;
41705;SDS011;27385;51.096;17.190;2022-09-09T07:11:55;8.60;;;2.80;;
41705;SDS011;27385;51.096;17.190;2022-09-09T07:14:27;7.80;;;2.70;;
41705;SDS011;27385;51.096;17.190;2022-09-09T07:16:59;8.00;;;2.50;;
41705;SDS011;27385;51.096;17.190;2022-09-09T07:19:31;8.90;;;2.40;;
41705;SDS011;27385;51.096;17.190;2022-09-09T07:22:02;5.50;;;1.80;;
41705;SDS011;27385;51.096;17.190;2022-09-09T07:24:34;6.30;;;2.20;;
41705;SDS011;27385;51.096;17.190;2022-09-09T07:27:05;8.70;;;2.20;;
41705;SDS011;27385;51.096;17.190;2022-09-09T07:29:37;7.20;;;2.10;;
41705;SDS011;27385;51.096;17.190;2022-09-09T07:32:09;9.50;;;2.10;;
41705;SDS011;27385;51.096;17.190;2022-09-09T07:34:40;5.80;;;2.00;;
41705;SDS011;27385;51.096;17.190;2022-09-09T07:37:12;9.60;;;2.20;;
41705;SDS011;27385;51.096;17.190;2022-09-09T07:39:44;10.50;;;1.90;;
41705;SDS011;27385;51.096;17.190;2022-09-09T07:42:15;4.90;;;1.60;;
41705;SDS011;27385;51.096;17.190;2022-09-09T07:44:47;10.80;;;1.90;;
41705;SDS011;27385;51.096;17.190;2022-09-09T07:47:22;8.30;;;1.50;;
41705;SDS011;27385;51.096;17.190;2022-09-09T07:49:54;4.60;;;1.60;;
41705;SDS011;27385;51.096;17.190;2022-09-09T07:52:27;5.00;;;1.60;;
41705;SDS011;27385;51.096;17.190;2022-09-09T07:54:59;5.90;;;1.90;;
41705;SDS011;27385;51.096;17.190;2022-09-09T07:57:32;6.80;;;1.80;;
41705;SDS011;27385;51.096;17.190;2022-09-09T08:00:04;11.90;;;1.80;;
41705;SDS011;27385;51.096;17.190;2022-09-09T08:02:38;9.90;;;2.10;;
41705;SDS011;27385;51.096;17.190;2022-09-09T08:05:10;6.60;;;1.60;;
41705;SDS011;27385;51.096;17.190;2022-09-09T08:07:43;4.20;;;1.50;;
41705;SDS011;27385;51.096;17.190;2022-09-09T08:10:15;6.90;;;1.40;;
41705;SDS011;27385;51.096;17.190;2022-09-09T08:12:46;6.70;;;1.40;;
41705;SDS011;27385;51.096;17.190;2022-09-09T08:15:18;6.90;;;1.40;;
41705;SDS011;27385;51.096;17.190;2022-09-09T08:17:51;7.40;;;1.10;;
41705;SDS011;27385;51.096;17.190;2022-09-09T08:20:23;3.60;;;1.20;;
41705;SDS011;27385;51.096;17.190;2022-09-09T08:22:56;4.20;;;0.90;;
41705;SDS011;27385;51.096;17.190;2022-09-09T08:25:28;7.30;;;1.10;;
41705;SDS011;27385;51.096;17.190;2022-09-09T08:28:03;5.10;;;1.20;;
41705;SDS011;27385;51.096;17.190;2022-09-09T08:30:34;10.50;;;1.20;;
41705;SDS011;27385;51.096;17.190;2022-09-09T08:33:06;3.60;;;1.00;;
41705;SDS011;27385;51.096;17.190;2022-09-09T08:35:38;5.60;;;1.10;;
41705;SDS011;27385;51.096;17.190;2022-09-09T08:38:19;5.00;;;1.00;;
41705;SDS011;27385;51.096;17.190;2022-09-09T08:40:51;3.50;;;0.90;;
41705;SDS011;27385;51.096;17.190;2022-09-09T08:43:32;5.00;;;0.70;;
41705;SDS011;27385;51.096;17.190;2022-09-09T08:46:07;8.40;;;0.90;;
41705;SDS011;27385;51.096;17.190;2022-09-09T08:48:46;3.50;;;0.90;;
41705;SDS011;27385;51.096;17.190;2022-09-09T08:51:27;2.30;;;0.60;;
41705;SDS011;27385;51.096;17.190;2022-09-09T08:54:02;4.10;;;0.70;;
41705;SDS011;27385;51.096;17.190;2022-09-09T08:56:35;8.40;;;1.10;;
41705;SDS011;27385;51.096;17.190;2022-09-09T08:59:07;4.10;;;0.80;;
41705;SDS011;27385;51.096;17.190;2022-09-09T09:01:45;7.30;;;0.80;;
41705;SDS011;27385;51.096;17.190;2022-09-09T09:04:32;5.10;;;1.00;;
41705;SDS011;27385;51.096;17.190;2022-09-09T09:07:15;5.50;;;0.80;;
41705;SDS011;27385;51.096;17.190;2022-09-09T09:10:00;1.70;;;0.40;;
41705;SDS011;27385;51.096;17.190;2022-09-09T09:12:40;1.50;;;0.50;;
41705;SDS011;27385;51.096;17.190;2022-09-09T09:15:16;11.00;;;1.30;;
41705;SDS011;27385;51.096;17.190;2022-09-09T09:17:52;3.80;;;0.60;;
41705;SDS011;27385;51.096;17.190;2022-09-09T09:20:27;3.30;;;0.60;;
41705;SDS011;27385;51.096;17.190;2022-09-09T09:23:12;2.90;;;0.60;;
41705;SDS011;27385;51.096;17.190;2022-09-09T09:25:51;3.10;;;0.60;;
41705;SDS011;27385;51.096;17.190;2022-09-09T09:28:28;5.20;;;0.90;;
41705;SDS011;27385;51.096;17.190;2022-09-09T09:31:01;3.50;;;0.60;;
41705;SDS011;27385;51.096;17.190;2022-09-09T09:33:38;3.20;;;0.50;;
41705;SDS011;27385;51.096;17.190;2022-09-09T09:38:56;2.20;;;0.40;;
41705;SDS011;27385;51.096;17.190;2022-09-09T09:41:30;2.80;;;0.40;;
41705;SDS011;27385;51.096;17.190;2022-09-09T09:44:04;1.50;;;0.40;;
41705;SDS011;27385;51.096;17.190;2022-09-09T09:46:51;3.30;;;0.60;;
41705;SDS011;27385;51.096;17.190;2022-09-09T09:49:34;6.70;;;0.60;;
41705;SDS011;27385;51.096;17.190;2022-09-09T09:52:06;5.20;;;0.70;;
41705;SDS011;27385;51.096;17.190;2022-09-09T09:54:46;3.00;;;0.60;;
41705;SDS011;27385;51.096;17.190;2022-09-09T09:57:22;2.40;;;0.40;;
41705;SDS011;27385;51.096;17.190;2022-09-09T10:00:11;5.70;;;0.70;;
41705;SDS011;27385;51.096;17.190;2022-09-09T10:02:45;6.90;;;0.70;;
41705;SDS011;27385;51.096;17.190;2022-09-09T10:05:20;4.20;;;0.60;;
41705;SDS011;27385;51.096;17.190;2022-09-09T10:08:05;2.80;;;0.40;;
41705;SDS011;27385;51.096;17.190;2022-09-09T10:13:42;2.10;;;0.40;;
41705;SDS011;27385;51.096;17.190;2022-09-09T10:16:29;3.40;;;0.70;;
41705;SDS011;27385;51.096;17.190;2022-09-09T10:19:13;4.90;;;0.80;;
41705;SDS011;27385;51.096;17.190;2022-09-09T10:21:53;6.60;;;0.70;;
41705;SDS011;27385;51.096;17.190;2022-09-09T10:24:39;4.10;;;0.50;;
41705;SDS011;27385;51.096;17.190;2022-09-09T10:27:23;2.70;;;0.50;;
41705;SDS011;27385;51.096;17.190;2022-09-09T10:30:12;5.50;;;0.60;;
41705;SDS011;27385;51.096;17.190;2022-09-09T10:32:48;4.20;;;0.50;;
41705;SDS011;27385;51.096;17.190;2022-09-09T10:35:29;3.60;;;0.50;;
41705;SDS011;27385;51.096;17.190;2022-09-09T10:38:16;3.10;;;0.80;;
41705;SDS011;27385;51.096;17.190;2022-09-09T10:41:00;4.10;;;0.50;;
41705;SDS011;27385;51.096;17.190;2022-09-09T10:43:55;4.40;;;0.50;;
41705;SDS011;27385;51.096;17.190;2022-09-09T10:46:48;5.60;;;0.40;;
41705;SDS011;27385;51.096;17.190;2022-09-09T10:49:36;0.90;;;0.30;;
41705;SDS011;27385;51.096;17.190;2022-09-09T10:52:36;3.60;;;0.30;;
41705;SDS011;27385;51.096;17.190;2022-09-09T10:55:20;5.70;;;0.40;;
41705;SDS011;27385;51.096;17.190;2022-09-09T10:57:55;3.20;;;0.40;;
41705;SDS011;27385;51.096;17.190;2022-09-09T11:00:37;4.40;;;0.90;;
41705;SDS011;27385;51.096;17.190;2022-09-09T11:03:15;4.00;;;0.50;;
41705;SDS011;27385;51.096;17.190;2022-09-09T11:05:49;4.50;;;0.50;;
41705;SDS011;27385;51.096;17.190;2022-09-09T11:08:27;1.50;;;0.40;;
41705;SDS011;27385;51.096;17.190;2022-09-09T11:11:02;2.60;;;0.60;;
41705;SDS011;27385;51.096;17.190;2022-09-09T11:13:42;1.30;;;0.30;;
41705;SDS011;27385;51.096;17.190;2022-09-09T11:16:22;3.60;;;0.50;;
41705;SDS011;27385;51.096;17.190;2022-09-09T11:19:00;5.20;;;0.50;;
41705;SDS011;27385;51.096;17.190;2022-09-09T11:21:41;2.00;;;0.50;;
41705;SDS011;27385;51.096;17.190;2022-09-09T11:24:16;2.20;;;0.40;;
41705;SDS011;27385;51.096;17.190;2022-09-09T11:26:53;3.80;;;0.30;;
41705;SDS011;27385;51.096;17.190;2022-09-09T11:29:38;4.90;;;0.50;;
41705;SDS011;27385;51.096;17.190;2022-09-09T11:32:32;4.10;;;0.40;;
41705;SDS011;27385;51.096;17.190;2022-09-09T11:35:29;1.90;;;0.40;;
41705;SDS011;27385;51.096;17.190;2022-09-09T11:38:18;2.50;;;0.40;;
41705;SDS011;27385;51.096;17.190;2022-09-09T11:40:58;3.00;;;0.40;;
41705;SDS011;27385;51.096;17.190;2022-09-09T11:43:38;2.70;;;0.50;;
41705;SDS011;27385;51.096;17.190;2022-09-09T11:46:12;3.10;;;0.40;;
41705;SDS011;27385;51.096;17.190;2022-09-09T11:48:57;1.80;;;0.30;;
41705;SDS011;27385;51.096;17.190;2022-09-09T11:51:31;2.00;;;0.50;;
41705;SDS011;27385;51.096;17.190;2022-09-09T11:54:29;2.00;;;0.40;;
41705;SDS011;27385;51.096;17.190;2022-09-09T11:57:00;4.00;;;0.90;;
41705;SDS011;27385;51.096;17.190;2022-09-09T11:59:33;2.80;;;0.60;;
41705;SDS011;27385;51.096;17.190;2022-09-09T12:02:11;4.00;;;0.40;;
41705;SDS011;27385;51.096;17.190;2022-09-09T12:04:47;2.30;;;0.30;;
41705;SDS011;27385;51.096;17.190;2022-09-09T12:07:28;3.60;;;0.30;;
41705;SDS011;27385;51.096;17.190;2022-09-09T12:12:51;3.10;;;0.50;;
41705;SDS011;27385;51.096;17.190;2022-09-09T12:15:25;4.20;;;0.40;;
41705;SDS011;27385;51.096;17.190;2022-09-09T12:17:58;2.00;;;0.50;;
41705;SDS011;27385;51.096;17.190;2022-09-09T12:20:35;6.90;;;0.50;;
41705;SDS011;27385;51.096;17.190;2022-09-09T12:23:12;2.40;;;0.40;;
41705;SDS011;27385;51.096;17.190;2022-09-09T12:25:57;2.90;;;0.30;;
41705;SDS011;27385;51.096;17.190;2022-09-09T12:28:44;1.90;;;0.40;;
41705;SDS011;27385;51.096;17.190;2022-09-09T12:31:32;2.70;;;0.40;;
41705;SDS011;27385;51.096;17.190;2022-09-09T12:34:14;1.90;;;0.30;;
41705;SDS011;27385;51.096;17.190;2022-09-09T12:36:52;2.00;;;0.40;;
41705;SDS011;27385;51.096;17.190;2022-09-09T12:39:29;3.90;;;0.30;;
41705;SDS011;27385;51.096;17.190;2022-09-09T12:42:05;2.40;;;0.30;;
41705;SDS011;27385;51.096;17.190;2022-09-09T12:44:51;2.40;;;0.30;;
41705;SDS011;27385;51.096;17.190;2022-09-09T12:47:25;2.40;;;0.30;;
41705;SDS011;27385;51.096;17.190;2022-09-09T12:50:10;4.40;;;0.40;;
41705;SDS011;27385;51.096;17.190;2022-09-09T12:52:49;3.50;;;0.60;;
41705;SDS011;27385;51.096;17.190;2022-09-09T12:55:24;1.00;;;0.30;;
41705;SDS011;27385;51.096;17.190;2022-09-09T12:57:58;1.60;;;0.30;;
41705;SDS011;27385;51.096;17.190;2022-09-09T13:00:33;2.80;;;0.30;;
41705;SDS011;27385;51.096;17.190;2022-09-09T13:03:16;3.90;;;0.40;;
41705;SDS011;27385;51.096;17.190;2022-09-09T13:05:49;2.10;;;0.50;;
41705;SDS011;27385;51.096;17.190;2022-09-09T13:08:22;2.00;;;0.30;;
41705;SDS011;27385;51.096;17.190;2022-09-09T13:10:55;1.60;;;0.30;;
41705;SDS011;27385;51.096;17.190;2022-09-09T13:13:33;2.60;;;0.40;;
41705;SDS011;27385;51.096;17.190;2022-09-09T13:16:18;3.60;;;0.60;;
41705;SDS011;27385;51.096;17.190;2022-09-09T13:18:52;4.60;;;0.80;;
41705;SDS011;27385;51.096;17.190;2022-09-09T13:21:32;3.50;;;0.60;;
41705;SDS011;27385;51.096;17.190;2022-09-09T13:24:06;1.70;;;0.40;;
41705;SDS011;27385;51.096;17.190;2022-09-09T13:26:57;1.10;;;0.30;;
41705;SDS011;27385;51.096;17.190;2022-09-09T13:29:31;1.00;;;0.30;;
41705;SDS011;27385;51.096;17.190;2022-09-09T13:32:06;3.00;;;0.70;;
41705;SDS011;27385;51.096;17.190;2022-09-09T13:34:51;5.70;;;0.50;;
41705;SDS011;27385;51.096;17.190;2022-09-09T13:37:26;1.90;;;0.30;;
41705;SDS011;27385;51.096;17.190;2022-09-09T13:40:03;2.20;;;0.30;;
41705;SDS011;27385;51.096;17.190;2022-09-09T13:42:39;2.10;;;0.40;;
41705;SDS011;27385;51.096;17.190;2022-09-09T13:45:23;3.30;;;0.40;;
41705;SDS011;27385;51.096;17.190;2022-09-09T13:47:56;2.50;;;0.40;;
41705;SDS011;27385;51.096;17.190;2022-09-09T13:50:37;2.30;;;0.50;;
41705;SDS011;27385;51.096;17.190;2022-09-09T13:53:12;1.10;;;0.30;;
41705;SDS011;27385;51.096;17.190;2022-09-09T13:55:47;2.80;;;0.30;;
41705;SDS011;27385;51.096;17.190;2022-09-09T13:58:22;2.00;;;0.30;;
41705;SDS011;27385;51.096;17.190;2022-09-09T14:00:54;5.70;;;0.50;;
41705;SDS011;27385;51.096;17.190;2022-09-09T14:03:26;1.10;;;0.30;;
41705;SDS011;27385;51.096;17.190;2022-09-09T14:05:58;1.90;;;0.40;;
41705;SDS011;27385;51.096;17.190;2022-09-09T14:08:30;2.10;;;0.20;;
41705;SDS011;27385;51.096;17.190;2022-09-09T14:11:05;2.60;;;0.30;;
41705;SDS011;27385;51.096;17.190;2022-09-09T14:13:40;4.40;;;0.70;;
41705;SDS011;27385;51.096;17.190;2022-09-09T14:16:13;2.30;;;0.50;;
41705;SDS011;27385;51.096;17.190;2022-09-09T14:18:45;2.90;;;0.30;;
41705;SDS011;27385;51.096;17.190;2022-09-09T14:21:17;1.90;;;0.30;;
41705;SDS011;27385;51.096;17.190;2022-09-09T14:23:49;1.40;;;0.30;;
41705;SDS011;27385;51.096;17.190;2022-09-09T14:26:22;1.90;;;0.40;;
41705;SDS011;27385;51.096;17.190;2022-09-09T14:28:54;2.60;;;0.40;;
41705;SDS011;27385;51.096;17.190;2022-09-09T14:31:27;4.60;;;1.00;;
41705;SDS011;27385;51.096;17.190;2022-09-09T14:33:58;7.70;;;1.00;;
41705;SDS011;27385;51.096;17.190;2022-09-09T14:36:30;4.50;;;0.80;;
41705;SDS011;27385;51.096;17.190;2022-09-09T14:39:01;5.60;;;0.50;;
41705;SDS011;27385;51.096;17.190;2022-09-09T14:41:36;2.70;;;0.50;;
41705;SDS011;27385;51.096;17.190;2022-09-09T14:44:08;4.30;;;0.50;;
41705;SDS011;27385;51.096;17.190;2022-09-09T14:46:40;3.00;;;0.90;;
41705;SDS011;27385;51.096;17.190;2022-09-09T14:49:11;4.30;;;0.50;;
41705;SDS011;27385;51.096;17.190;2022-09-09T14:51:43;2.30;;;0.40;;
41705;SDS011;27385;51.096;17.190;2022-09-09T14:54:15;2.10;;;0.40;;
41705;SDS011;27385;51.096;17.190;2022-09-09T14:56:49;3.40;;;0.50;;
41705;SDS011;27385;51.096;17.190;2022-09-09T14:59:20;4.00;;;0.50;;
41705;SDS011;27385;51.096;17.190;2022-09-09T15:01:52;2.70;;;0.40;;
41705;SDS011;27385;51.096;17.190;2022-09-09T15:04:26;3.70;;;0.60;;
41705;SDS011;27385;51.096;17.190;2022-09-09T15:07:09;2.80;;;0.70;;
41705;SDS011;27385;51.096;17.190;2022-09-09T15:09:41;4.10;;;0.50;;
41705;SDS011;27385;51.096;17.190;2022-09-09T15:12:13;2.40;;;0.60;;
41705;SDS011;27385;51.096;17.190;2022-09-09T15:14:46;4.00;;;0.60;;
41705;SDS011;27385;51.096;17.190;2022-09-09T15:17:18;7.40;;;0.60;;
41705;SDS011;27385;51.096;17.190;2022-09-09T15:19:50;4.20;;;0.60;;
41705;SDS011;27385;51.096;17.190;2022-09-09T15:22:22;5.90;;;0.70;;
41705;SDS011;27385;51.096;17.190;2022-09-09T15:24:54;3.60;;;0.60;;
41705;SDS011;27385;51.096;17.190;2022-09-09T15:27:25;2.70;;;0.60;;
41705;SDS011;27385;51.096;17.190;2022-09-09T15:29:57;6.10;;;0.70;;
41705;SDS011;27385;51.096;17.190;2022-09-09T15:32:29;4.80;;;0.70;;
41705;SDS011;27385;51.096;17.190;2022-09-09T15:35:01;3.60;;;0.50;;